Strona główna
METAR-TAF:

METAR-TAF

Lotnisko :

Port lotniczy Pointe-Noire

Pointe-Noire, Kongo

Szerokość geograficzna: 04-49S, Długość geograficzna: 011-54E, wysokość: 17 m

Aktualna obserwacja pogody

Raport powstał 28 minut temu, godzina 04:00 UTC
Wiatr 2 kt z kierunków zmiennych
Temperatura 25°C
Wilgotność 94%
Ciśnienie 1012 hPa
Widzialność: 4800 m
Rozproszone chmury na wysokości 800 ft
Przerywane chmury na wysokości 2300 ft
zamglenie

METAR: FCPP 150400Z VRB02KT 4800 BR SCT008 BKN023 25/24 Q1012 NOSIG

czas: 05:28 (04:28 UTC)

Prognoza

Raport powstał 5 godziny i 28 minut temu, godzina 23:00 UTC
Prognoza ważna od 15 godzina 00 UTC do 15 godzina 24 UTC
Wiatr 2 kt od południe
Widzialność: 4000 m
Mało chmury na wysokości 1000 ft
Przerywane chmury na wysokości 2300 ft
zamglenie
Stopniowe zmiany
od 15 godzina 08 UTC do 15 godzina 10 UTC
Widzialność: 8000 m
Mało chmury na wysokości 1000 ft
Rozproszone chmury na wysokości 2600 ft

TAF: FCPP 142300Z 1500/1524 18002KT 4000 BR FEW010 BKN023 BECMG 1508/1510 8000 NSW FEW010 SCT026

Obserwacja i prognoza pogody dla ponad 4000 lotnisk (raport METAR i TAF).

Dostępne stacje oznaczono żółtymi i czerwonymi punktami na mapie.

Najedź kursorem aby zobaczyć nazwę stacji.

Kliknij aby zobaczyć obserwacje i prognozy pogody.

Aby zmienić mapę: kliknij na zielony przycisk z czarnym krzyżykiem, aby powiększyć; na zielony przycisk z myślnikiem, aby pomniejszyć; na zielone strzałki, aby przejść do map sąsiednich.


METAR-TAF: